createdAt,value
2022-09-06T00:02:00.561Z,18.00
2022-09-06T00:04:27.599Z,16.50
2022-09-06T00:06:54.420Z,21.50
2022-09-06T00:09:21.440Z,17.25
2022-09-06T00:11:48.272Z,18.00
2022-09-06T00:14:15.203Z,15.25
2022-09-06T00:16:54.903Z,13.00
2022-09-06T00:19:21.883Z,11.50
2022-09-06T00:21:58.998Z,14.00
2022-09-06T00:24:26.541Z,12.75
2022-09-06T00:26:53.385Z,10.00
2022-09-06T00:29:20.416Z,16.75
2022-09-06T00:31:47.214Z,18.00
2022-09-06T00:34:14.157Z,16.00
2022-09-06T00:36:41.015Z,20.75
2022-09-06T00:39:07.890Z,15.75
2022-09-06T00:41:37.631Z,17.00
2022-09-06T00:44:04.563Z,18.50
2022-09-06T00:46:40.036Z,16.25
2022-09-06T00:49:12.520Z,19.50
2022-09-06T00:51:40.300Z,15.50
2022-09-06T00:54:09.057Z,17.00
2022-09-06T00:56:42.187Z,14.00
2022-09-06T00:59:09.374Z,17.00
2022-09-06T01:01:36.302Z,13.75
2022-09-06T01:04:04.027Z,12.00
2022-09-06T01:07:02.971Z,12.50
2022-09-06T01:09:50.472Z,11.00
2022-09-06T01:12:44.911Z,19.00
2022-09-06T01:15:34.620Z,16.25
2022-09-06T01:18:09.108Z,14.75
2022-09-06T01:20:54.083Z,15.50
2022-09-06T01:23:51.600Z,12.50
2022-09-06T01:27:16.938Z,11.00
2022-09-06T01:29:51.539Z,18.75
2022-09-06T01:32:34.320Z,21.75
2022-09-06T01:35:14.207Z,14.25
2022-09-06T01:37:41.640Z,12.00
2022-09-06T01:40:08.762Z,13.75
2022-09-06T01:42:36.721Z,13.00
2022-09-06T01:45:12.600Z,12.00
2022-09-06T01:47:45.289Z,16.50
2022-09-06T01:50:33.424Z,16.00
2022-09-06T01:53:22.692Z,16.00
2022-09-06T01:56:08.623Z,18.25
2022-09-06T01:59:09.103Z,14.25
2022-09-06T02:02:02.726Z,12.00
2022-09-06T02:04:38.502Z,10.00
2022-09-06T02:07:16.683Z,16.75
2022-09-06T02:09:48.797Z,16.00
2022-09-06T02:12:19.266Z,17.50
2022-09-06T02:14:58.160Z,21.75
2022-09-06T02:17:32.141Z,21.00
2022-09-06T02:20:21.172Z,21.75
2022-09-06T02:22:53.608Z,22.00
2022-09-06T02:25:32.000Z,14.25
2022-09-06T02:27:59.049Z,11.00
2022-09-06T02:30:26.095Z,14.50
2022-09-06T02:33:01.770Z,17.25
2022-09-06T02:35:28.970Z,14.50
2022-09-06T02:37:55.912Z,19.75
2022-09-06T02:40:23.161Z,17.00
2022-09-06T02:42:50.121Z,16.75
2022-09-06T02:45:17.087Z,15.75
2022-09-06T02:47:43.894Z,13.75
2022-09-06T02:50:31.061Z,12.00
2022-09-06T02:53:05.331Z,11.00
2022-09-06T02:55:33.209Z,13.50
2022-09-06T02:58:00.105Z,12.00
2022-09-06T03:00:27.904Z,15.00
2022-09-06T03:02:55.570Z,19.00
2022-09-06T03:05:23.599Z,16.50
2022-09-06T03:07:50.710Z,18.75
2022-09-06T03:10:17.885Z,22.75
2022-09-06T03:12:45.567Z,16.50
2022-09-06T03:15:35.697Z,16.75
2022-09-06T03:18:02.576Z,22.00
2022-09-06T03:20:31.031Z,17.50
2022-09-06T03:23:00.852Z,21.00
2022-09-06T03:25:27.783Z,22.00
2022-09-06T03:27:54.613Z,21.00
2022-09-06T03:30:21.518Z,22.00
2022-09-06T03:32:48.425Z,22.00
2022-09-06T03:35:15.235Z,21.00
2022-09-06T03:37:42.176Z,21.50
2022-09-06T03:40:09.830Z,27.25
2022-09-06T03:42:36.814Z,28.00
2022-09-06T03:45:03.913Z,20.00
2022-09-06T03:47:30.944Z,21.75
2022-09-06T03:49:57.803Z,24.00
2022-09-06T03:52:24.796Z,22.50
2022-09-06T03:54:51.597Z,21.25
2022-09-06T03:57:18.464Z,28.00
2022-09-06T03:59:45.289Z,30.00
2022-09-06T04:02:12.599Z,31.50
2022-09-06T04:04:49.712Z,29.75
2022-09-06T04:07:16.586Z,26.25
2022-09-06T04:09:52.292Z,29.00
2022-09-06T04:12:19.221Z,24.00
2022-09-06T04:14:45.997Z,19.50
2022-09-06T04:17:12.876Z,17.00
2022-09-06T04:19:39.778Z,24.25
2022-09-06T04:22:06.658Z,25.75
2022-09-06T04:24:45.391Z,24.00
2022-09-06T04:27:12.303Z,26.25
2022-09-06T04:29:39.109Z,25.00
2022-09-06T04:32:06.283Z,26.50
2022-09-06T04:34:33.137Z,22.25
2022-09-06T04:37:00.007Z,20.00
2022-09-06T04:39:26.851Z,22.00
2022-09-06T04:41:53.793Z,24.00
2022-09-06T04:44:20.605Z,24.00
2022-09-06T04:46:47.507Z,26.00
2022-09-06T04:49:14.280Z,20.00
2022-09-06T04:51:41.254Z,23.75
2022-09-06T04:54:08.167Z,27.00
2022-09-06T04:56:35.123Z,25.00
2022-09-06T04:59:01.931Z,25.00
2022-09-06T05:01:28.854Z,25.00
2022-09-06T05:03:57.099Z,25.75
2022-09-06T05:06:25.536Z,22.25
2022-09-06T05:08:52.413Z,25.00
2022-09-06T05:11:19.872Z,23.00
2022-09-06T05:13:47.324Z,23.25
2022-09-06T05:16:14.656Z,21.50
2022-09-06T05:18:42.648Z,21.00
2022-09-06T05:21:09.688Z,23.75
2022-09-06T05:23:36.492Z,23.00
2022-09-06T05:26:03.543Z,24.75
2022-09-06T05:28:30.544Z,23.00
2022-09-06T05:31:12.547Z,21.00
2022-09-06T05:33:40.028Z,22.00
2022-09-06T05:36:07.529Z,22.00
2022-09-06T05:38:34.495Z,23.00
2022-09-06T05:41:01.378Z,32.50
2022-09-06T05:43:28.191Z,28.50
2022-09-06T05:45:55.081Z,27.75
2022-09-06T05:48:22.071Z,26.50
2022-09-06T05:51:00.091Z,29.50
2022-09-06T05:53:27.079Z,27.00
2022-09-06T05:55:53.869Z,25.75
2022-09-06T05:58:20.720Z,29.00
2022-09-06T06:01:03.834Z,32.00
2022-09-06T06:03:30.776Z,30.00
2022-09-06T06:05:57.608Z,29.00
2022-09-06T06:08:24.592Z,33.00
2022-09-06T06:10:51.440Z,32.75
2022-09-06T06:13:18.261Z,34.50
2022-09-06T06:15:45.097Z,33.00
2022-09-06T06:18:11.864Z,33.00
2022-09-06T06:20:41.594Z,31.00
2022-09-06T06:23:08.481Z,32.00
2022-09-06T06:25:35.281Z,33.00
2022-09-06T06:28:02.201Z,35.25
2022-09-06T06:30:29.037Z,36.00
2022-09-06T06:32:55.828Z,35.00
2022-09-06T06:35:22.619Z,36.00
2022-09-06T06:37:49.584Z,36.00
2022-09-06T06:40:16.508Z,39.00
2022-09-06T06:42:43.368Z,35.50
2022-09-06T06:45:10.684Z,34.00
2022-09-06T06:47:37.526Z,34.00
2022-09-06T06:50:04.768Z,33.00
2022-09-06T06:52:31.566Z,31.00
2022-09-06T06:54:58.451Z,30.00
2022-09-06T06:57:25.273Z,30.50
2022-09-06T06:59:52.096Z,31.00
2022-09-06T07:02:19.007Z,32.75
2022-09-06T07:04:45.880Z,30.25
2022-09-06T07:12:46.633Z,25.00
2022-09-06T07:15:13.464Z,26.50
2022-09-06T07:17:40.443Z,25.00
2022-09-06T07:20:15.262Z,29.25
2022-09-06T07:22:42.787Z,26.00
2022-09-06T07:25:10.733Z,24.00
2022-09-06T07:27:52.848Z,26.00
2022-09-06T07:30:20.180Z,23.00
2022-09-06T07:32:49.941Z,23.50
2022-09-06T07:35:16.833Z,27.00
2022-09-06T07:37:43.791Z,23.50
2022-09-06T07:40:11.322Z,22.25
2022-09-06T07:42:38.309Z,22.00
2022-09-06T07:45:43.907Z,22.00
2022-09-06T07:48:49.245Z,27.00
2022-09-06T07:51:19.299Z,28.00
2022-09-06T07:54:06.959Z,23.00
2022-09-06T07:56:40.234Z,26.25
2022-09-06T07:59:07.039Z,27.50
2022-09-06T08:01:39.207Z,27.00
2022-09-06T08:04:13.827Z,28.00
2022-09-06T08:09:33.644Z,23.00
2022-09-06T08:12:00.490Z,22.00
2022-09-06T08:14:39.807Z,26.50
2022-09-06T08:17:06.725Z,23.00
2022-09-06T08:19:35.859Z,26.75
2022-09-06T08:22:03.119Z,27.00
2022-09-06T08:24:29.960Z,26.50
2022-09-06T08:26:56.851Z,30.00
2022-09-06T08:29:23.690Z,26.75
2022-09-06T08:31:50.639Z,25.00
2022-09-06T08:34:17.479Z,25.75
2022-09-06T08:36:44.573Z,28.00
2022-09-06T08:39:11.832Z,28.25
2022-09-06T08:41:57.716Z,30.75
2022-09-06T08:47:22.253Z,30.00
2022-09-06T08:49:53.936Z,32.00
2022-09-06T08:52:29.785Z,30.50
2022-09-06T08:55:30.359Z,31.00
2022-09-06T08:58:16.006Z,31.00
2022-09-06T09:00:50.240Z,32.00
2022-09-06T09:03:25.184Z,32.00
2022-09-06T09:05:53.643Z,30.00
2022-09-06T09:08:39.003Z,29.00
2022-09-06T09:11:32.740Z,28.00
2022-09-06T09:14:08.771Z,32.50
2022-09-06T09:16:36.129Z,33.00
2022-09-06T09:19:05.604Z,29.25
2022-09-06T09:21:39.884Z,33.25
2022-09-06T09:24:12.464Z,34.00
2022-09-06T09:26:51.175Z,31.00
2022-09-06T09:29:20.813Z,31.00
2022-09-06T09:31:54.771Z,31.00
2022-09-06T09:34:38.749Z,29.50
2022-09-06T09:40:26.784Z,31.00
2022-09-06T09:42:57.539Z,34.75
2022-09-06T09:45:30.464Z,36.00
2022-09-06T09:48:45.460Z,34.00
2022-09-06T09:51:27.489Z,32.00
2022-09-06T09:54:00.066Z,33.75
2022-09-06T09:56:36.764Z,31.00
2022-09-06T09:59:27.810Z,33.00
2022-09-06T10:02:00.559Z,31.00
2022-09-06T10:04:44.854Z,31.00
2022-09-06T10:07:19.759Z,28.75
2022-09-06T10:09:49.811Z,29.75
2022-09-06T10:12:27.384Z,26.25
2022-09-06T10:14:54.807Z,25.00
2022-09-06T10:17:30.274Z,24.50
2022-09-06T10:20:01.018Z,24.00
2022-09-06T10:22:31.625Z,24.00
2022-09-06T10:25:16.625Z,31.00
2022-09-06T10:28:11.196Z,31.00
2022-09-06T10:30:59.301Z,30.75
2022-09-06T10:33:50.793Z,28.00
2022-09-06T10:36:26.459Z,26.00
2022-09-06T10:39:03.489Z,29.00
2022-09-06T10:41:49.501Z,31.50
2022-09-06T10:44:19.299Z,30.50
2022-09-06T10:46:48.432Z,28.50
2022-09-06T10:49:19.835Z,30.25
2022-09-06T10:51:58.120Z,29.00
2022-09-06T10:54:25.282Z,30.25
2022-09-06T10:57:01.028Z,29.25
2022-09-06T11:02:18.786Z,30.75
2022-09-06T11:10:43.702Z,29.25
2022-09-06T11:13:25.036Z,28.00
2022-09-06T11:16:07.632Z,25.00
2022-09-06T11:19:11.528Z,29.00
2022-09-06T11:22:00.207Z,29.00
2022-09-06T11:24:41.911Z,29.00
2022-09-06T11:27:42.588Z,27.00
2022-09-06T11:30:15.881Z,27.50
2022-09-06T11:32:51.462Z,30.00
2022-09-06T11:35:27.283Z,29.00
2022-09-06T11:38:22.192Z,26.00
2022-09-06T11:41:01.602Z,25.25
2022-09-06T11:44:15.213Z,29.25
2022-09-06T11:46:42.260Z,30.00
2022-09-06T11:49:29.102Z,32.75
2022-09-06T11:51:56.316Z,33.75
2022-09-06T11:54:46.151Z,31.75
2022-09-06T11:57:20.874Z,36.00
2022-09-06T11:59:47.683Z,34.00
2022-09-06T12:02:40.550Z,34.00
2022-09-06T12:05:09.434Z,32.75
2022-09-06T12:08:23.222Z,32.00
2022-09-06T12:10:58.505Z,35.50
2022-09-06T12:13:39.727Z,32.25
2022-09-06T12:16:07.744Z,34.50
2022-09-06T12:18:46.851Z,30.75
2022-09-06T12:21:33.853Z,32.00
2022-09-06T12:24:02.255Z,31.00
2022-09-06T12:26:54.428Z,32.00
2022-09-06T12:29:28.351Z,31.00
2022-09-06T12:31:59.185Z,32.50
2022-09-06T12:34:30.344Z,30.50
2022-09-06T12:37:08.416Z,29.00
2022-09-06T12:39:35.712Z,30.00
2022-09-06T12:42:06.011Z,29.00
2022-09-06T12:44:38.848Z,29.00
2022-09-06T12:47:24.330Z,29.50
2022-09-06T12:50:26.100Z,27.50
2022-09-06T12:52:58.021Z,24.00
2022-09-06T12:55:31.969Z,24.00
2022-09-06T12:58:01.967Z,23.00
2022-09-06T13:00:53.255Z,24.00
2022-09-06T13:03:33.027Z,25.75
2022-09-06T13:06:03.880Z,26.00
2022-09-06T13:08:43.175Z,27.25
2022-09-06T13:11:13.457Z,27.25
2022-09-06T13:13:54.759Z,23.25
2022-09-06T13:16:51.040Z,21.50
2022-09-06T13:19:39.586Z,24.00
2022-09-06T13:22:09.022Z,27.00
2022-09-06T13:24:36.844Z,27.00
2022-09-06T13:27:31.475Z,23.00
2022-09-06T13:30:04.990Z,23.00
2022-09-06T13:32:32.528Z,24.00
2022-09-06T13:35:00.126Z,22.00
2022-09-06T13:37:29.930Z,24.25
2022-09-06T13:39:58.015Z,25.50
2022-09-06T13:42:31.275Z,27.00
2022-09-06T13:45:02.003Z,23.75
2022-09-06T13:47:30.122Z,21.00
2022-09-06T13:49:57.039Z,24.75
2022-09-06T13:52:23.979Z,25.00
2022-09-06T13:54:50.998Z,26.50
2022-09-06T13:57:23.546Z,25.00
2022-09-06T13:59:51.167Z,23.00
2022-09-06T14:02:18.238Z,23.00
2022-09-06T14:04:45.595Z,24.00
2022-09-06T14:07:12.597Z,25.00
2022-09-06T14:09:41.899Z,20.50
2022-09-06T14:12:08.811Z,22.25
2022-09-06T14:14:35.886Z,22.25
2022-09-06T14:17:02.804Z,20.00
2022-09-06T14:19:42.824Z,23.50
2022-09-06T14:22:09.773Z,25.00
2022-09-06T14:24:39.527Z,21.50
2022-09-06T14:27:06.694Z,22.50
2022-09-06T14:29:34.211Z,22.00
2022-09-06T14:32:01.873Z,24.50
2022-09-06T14:34:28.945Z,24.00
2022-09-06T14:36:55.944Z,22.00
2022-09-06T14:39:22.980Z,22.00
2022-09-06T14:41:50.031Z,22.00
2022-09-06T14:44:17.079Z,25.00
2022-09-06T14:46:44.110Z,21.50
2022-09-06T14:49:11.196Z,22.00
2022-09-06T14:51:38.470Z,21.00
2022-09-06T14:54:14.012Z,18.00
2022-09-06T14:57:06.304Z,18.00
2022-09-06T14:59:33.226Z,17.50
2022-09-06T15:02:00.263Z,21.00
2022-09-06T15:04:27.261Z,21.00
2022-09-06T15:06:56.349Z,22.00
2022-09-06T15:09:23.232Z,20.50
2022-09-06T15:11:51.317Z,22.75
2022-09-06T15:14:32.650Z,25.00
2022-09-06T15:19:42.616Z,23.00
2022-09-06T15:22:11.998Z,26.25
2022-09-06T15:24:39.469Z,26.75
2022-09-06T15:27:06.652Z,22.25
2022-09-06T15:29:33.788Z,22.25
2022-09-06T15:32:00.670Z,23.00
2022-09-06T15:34:27.769Z,25.25
2022-09-06T15:36:54.603Z,25.00
2022-09-06T15:39:21.502Z,21.25
2022-09-06T15:41:50.743Z,18.00
2022-09-06T15:44:21.508Z,21.75
2022-09-06T15:46:56.818Z,25.00
2022-09-06T15:49:29.545Z,22.25
2022-09-06T15:51:58.476Z,23.75
2022-09-06T15:54:25.628Z,24.00
2022-09-06T15:56:52.811Z,23.00
2022-09-06T15:59:19.676Z,21.00
2022-09-06T16:01:46.905Z,19.50
2022-09-06T16:04:16.869Z,18.25
2022-09-06T16:06:43.814Z,19.75
2022-09-06T16:09:24.128Z,22.50
2022-09-06T16:11:51.115Z,22.00
2022-09-06T16:14:20.887Z,26.00
2022-09-06T16:17:03.459Z,32.75
2022-09-06T16:19:30.633Z,27.00
2022-09-06T16:22:03.279Z,25.00
2022-09-06T16:24:30.321Z,22.00
2022-09-06T16:26:57.165Z,20.00
2022-09-06T16:29:24.531Z,21.00
2022-09-06T16:31:51.390Z,21.00
2022-09-06T16:34:18.282Z,21.00
2022-09-06T16:36:45.149Z,22.25
2022-09-06T16:39:12.178Z,23.50
2022-09-06T16:41:46.686Z,22.00
2022-09-06T16:44:17.168Z,21.00
2022-09-06T16:46:58.960Z,20.00
2022-09-06T16:49:26.000Z,18.25
2022-09-06T16:51:53.125Z,22.25
2022-09-06T16:54:20.661Z,31.25
2022-09-06T16:56:48.108Z,23.00
2022-09-06T16:59:15.300Z,21.00
2022-09-06T17:01:42.693Z,18.25
2022-09-06T17:04:10.551Z,23.50
2022-09-06T17:06:37.845Z,24.00
2022-09-06T17:09:05.320Z,21.50
2022-09-06T17:11:32.158Z,28.25
2022-09-06T17:14:02.352Z,30.75
2022-09-06T17:16:33.314Z,30.00
2022-09-06T17:19:01.656Z,21.50
2022-09-06T17:21:29.742Z,21.75
2022-09-06T17:23:57.110Z,20.00
2022-09-06T17:26:24.428Z,22.75
2022-09-06T17:28:51.661Z,24.75
2022-09-06T17:31:25.665Z,24.00
2022-09-06T17:33:53.766Z,19.25
2022-09-06T17:36:27.630Z,18.00
2022-09-06T17:39:11.109Z,17.75
2022-09-06T17:41:44.179Z,16.00
2022-09-06T17:44:17.888Z,22.75
2022-09-06T17:47:09.115Z,19.25
2022-09-06T17:49:35.215Z,21.00
2022-09-06T17:52:05.844Z,23.00
2022-09-06T17:54:33.809Z,23.00
2022-09-06T17:57:01.746Z,20.25
2022-09-06T17:59:34.262Z,18.00
2022-09-06T18:02:02.581Z,28.75
2022-09-06T18:04:29.615Z,29.00
2022-09-06T18:06:56.641Z,22.00
2022-09-06T18:09:23.617Z,20.25
2022-09-06T18:11:50.729Z,20.00
2022-09-06T18:14:18.970Z,24.50
2022-09-06T18:16:46.681Z,25.00
2022-09-06T18:19:13.711Z,21.00
2022-09-06T18:21:41.150Z,21.50
2022-09-06T18:24:09.657Z,19.00
2022-09-06T18:26:37.085Z,18.00
2022-09-06T18:29:05.068Z,17.00
2022-09-06T18:31:32.458Z,18.00
2022-09-06T18:33:59.383Z,17.00
2022-09-06T18:36:31.726Z,22.25
2022-09-06T18:39:03.866Z,18.50
2022-09-06T18:41:32.592Z,15.00
2022-09-06T18:44:00.220Z,20.00
2022-09-06T18:46:27.403Z,18.50
2022-09-06T18:48:54.543Z,20.00
2022-09-06T18:51:22.298Z,19.50
2022-09-06T18:53:49.275Z,20.50
2022-09-06T18:56:16.433Z,20.00
2022-09-06T18:58:43.372Z,20.00
2022-09-06T19:01:16.199Z,22.50
2022-09-06T19:03:43.877Z,23.25
2022-09-06T19:06:16.844Z,21.00
2022-09-06T19:08:44.845Z,23.75
2022-09-06T19:11:14.055Z,20.50
2022-09-06T19:13:41.724Z,17.00
2022-09-06T19:16:10.699Z,15.25
2022-09-06T19:18:39.886Z,20.25
2022-09-06T19:21:08.546Z,18.00
2022-09-06T19:23:38.388Z,21.75
2022-09-06T19:26:11.325Z,22.00
2022-09-06T19:28:38.495Z,21.50
2022-09-06T19:31:33.123Z,25.00
2022-09-06T19:34:00.852Z,21.75
2022-09-06T19:36:29.525Z,17.00
2022-09-06T19:39:05.830Z,16.00
2022-09-06T19:41:36.852Z,13.00
2022-09-06T19:44:04.517Z,21.50
2022-09-06T19:46:33.847Z,16.00
2022-09-06T19:49:01.006Z,16.50
2022-09-06T19:51:27.967Z,18.50
2022-09-06T19:53:56.877Z,16.75
2022-09-06T19:56:27.069Z,13.00
2022-09-06T19:58:55.968Z,19.75
2022-09-06T20:01:24.399Z,20.00
2022-09-06T20:03:51.947Z,15.25
2022-09-06T20:06:18.830Z,16.00
2022-09-06T20:08:50.280Z,15.00
2022-09-06T20:11:18.889Z,10.25
2022-09-06T20:13:46.010Z,17.00
2022-09-06T20:16:13.850Z,15.75
2022-09-06T20:18:41.189Z,20.00
2022-09-06T20:21:43.720Z,22.00
2022-09-06T20:24:23.111Z,19.50
2022-09-06T20:26:51.367Z,21.00
2022-09-06T20:29:18.385Z,17.75
2022-09-06T20:31:45.417Z,20.00
2022-09-06T20:34:17.380Z,17.25
2022-09-06T20:36:44.372Z,21.25
2022-09-06T20:39:11.295Z,17.75
2022-09-06T20:41:38.294Z,20.00
2022-09-06T20:44:05.125Z,21.00
2022-09-06T20:46:33.624Z,22.00
2022-09-06T20:49:01.196Z,17.50
2022-09-06T20:51:28.094Z,13.00
2022-09-06T20:53:57.656Z,11.00
2022-09-06T20:56:28.671Z,15.75
2022-09-06T20:58:58.743Z,17.00
2022-09-06T21:01:27.715Z,18.00
2022-09-06T21:03:57.406Z,17.00
2022-09-06T21:06:26.574Z,21.00
2022-09-06T21:08:53.949Z,22.00
2022-09-06T21:11:21.216Z,22.00
2022-09-06T21:13:51.640Z,19.00
2022-09-06T21:16:28.758Z,19.25
2022-09-06T21:18:58.282Z,16.00
2022-09-06T21:21:26.863Z,15.00
2022-09-06T21:23:54.253Z,20.25
2022-09-06T21:26:21.429Z,22.25
2022-09-06T21:28:49.211Z,23.00
2022-09-06T21:31:28.606Z,23.00
2022-09-06T21:33:57.711Z,22.00
2022-09-06T21:36:27.270Z,18.25
2022-09-06T21:38:55.733Z,20.00
2022-09-06T21:41:23.470Z,22.00
2022-09-06T21:43:55.211Z,18.50
2022-09-06T21:46:24.728Z,13.00
2022-09-06T21:48:54.521Z,12.00
2022-09-06T21:51:24.076Z,13.00
2022-09-06T21:53:52.010Z,13.00
2022-09-06T21:56:19.713Z,11.00
2022-09-06T21:58:50.981Z,13.75
2022-09-06T22:01:18.432Z,13.00
2022-09-06T22:03:54.336Z,13.50
2022-09-06T22:06:23.958Z,13.00
2022-09-06T22:08:52.131Z,15.50
2022-09-06T22:11:22.164Z,21.00
2022-09-06T22:13:50.098Z,17.25
2022-09-06T22:16:19.363Z,14.75
2022-09-06T22:18:47.788Z,16.00
2022-09-06T22:21:19.941Z,21.75
2022-09-06T22:23:58.530Z,22.00
2022-09-06T22:26:28.021Z,23.00
2022-09-06T22:28:57.059Z,20.00
2022-09-06T22:31:26.003Z,20.00
2022-09-06T22:33:53.409Z,20.00
2022-09-06T22:36:20.889Z,22.00
2022-09-06T22:38:47.757Z,21.50
2022-09-06T22:41:14.586Z,17.75
2022-09-06T22:43:41.408Z,16.00
2022-09-06T22:46:11.423Z,18.75
2022-09-06T22:48:38.667Z,15.00
2022-09-06T22:51:05.988Z,13.75
2022-09-06T22:53:34.359Z,21.00
2022-09-06T22:56:02.083Z,19.25
2022-09-06T22:58:29.226Z,13.75
2022-09-06T23:00:56.858Z,17.50
2022-09-06T23:03:23.766Z,22.75
2022-09-06T23:05:50.762Z,19.25
2022-09-06T23:08:17.639Z,20.00
2022-09-06T23:10:44.570Z,22.00
2022-09-06T23:13:11.597Z,23.75
2022-09-06T23:15:39.552Z,19.50
2022-09-06T23:18:07.077Z,22.75
2022-09-06T23:20:36.338Z,22.75
2022-09-06T23:23:04.385Z,24.50
2022-09-06T23:25:31.571Z,22.00
2022-09-06T23:28:01.517Z,22.75
2022-09-06T23:30:28.423Z,17.50
2022-09-06T23:32:55.235Z,20.50
2022-09-06T23:35:23.311Z,22.00
2022-09-06T23:37:51.047Z,20.00
2022-09-06T23:40:19.102Z,23.50
2022-09-06T23:42:46.419Z,18.75
2022-09-06T23:45:13.413Z,19.75
2022-09-06T23:47:43.319Z,22.00
2022-09-06T23:50:10.944Z,19.25
2022-09-06T23:52:37.817Z,18.50
2022-09-06T23:55:05.041Z,18.50
2022-09-06T23:57:31.889Z,17.00
2022-09-06T23:59:58.904Z,20.00
